createdAt,value
2023-03-24T00:01:24.527Z,89.55
2023-03-24T00:03:53.918Z,89.44
2023-03-24T00:06:23.615Z,89.28
2023-03-24T00:08:53.260Z,89.23
2023-03-24T00:11:22.058Z,89.14
2023-03-24T00:13:50.973Z,89.03
2023-03-24T00:16:22.166Z,88.93
2023-03-24T00:18:54.224Z,88.84
2023-03-24T00:21:25.522Z,88.83
2023-03-24T00:23:58.274Z,88.86
2023-03-24T00:26:27.244Z,88.79
2023-03-24T00:28:55.790Z,88.69
2023-03-24T00:31:24.697Z,88.60
2023-03-24T00:33:53.951Z,88.58
2023-03-24T00:36:25.962Z,88.44
2023-03-24T00:38:54.902Z,88.38
2023-03-24T00:41:25.067Z,88.30
2023-03-24T00:43:55.920Z,88.29
2023-03-24T00:46:36.578Z,88.14
2023-03-24T00:49:21.232Z,88.10
2023-03-24T00:51:51.082Z,88.19
2023-03-24T00:54:22.140Z,88.24
2023-03-24T00:56:56.026Z,88.25
2023-03-24T00:59:30.100Z,88.38
2023-03-24T01:01:58.462Z,88.47
2023-03-24T01:04:27.046Z,88.47
2023-03-24T01:06:58.392Z,88.45
2023-03-24T01:09:26.405Z,88.44
2023-03-24T01:11:56.210Z,88.60
2023-03-24T01:14:24.405Z,88.47
2023-03-24T01:16:53.144Z,88.47
2023-03-24T01:19:27.748Z,88.42
2023-03-24T01:21:59.643Z,88.29
2023-03-24T01:24:28.312Z,88.33
2023-03-24T01:26:56.382Z,88.32
2023-03-24T01:29:24.598Z,88.23
2023-03-24T01:31:52.744Z,88.12
2023-03-24T01:34:21.210Z,88.13
2023-03-24T01:36:49.268Z,88.09
2023-03-24T01:39:18.788Z,88.01
2023-03-24T01:41:46.905Z,87.95
2023-03-24T01:44:30.046Z,88.02
2023-03-24T01:46:58.745Z,88.01
2023-03-24T01:49:31.529Z,87.98
2023-03-24T01:52:02.147Z,88.01
2023-03-24T01:54:36.006Z,87.97
2023-03-24T01:57:06.789Z,87.98
2023-03-24T01:59:40.489Z,87.91
2023-03-24T02:02:09.919Z,87.77
2023-03-24T02:04:42.226Z,87.62
2023-03-24T02:07:12.579Z,87.33
2023-03-24T02:09:42.003Z,87.09
2023-03-24T02:12:10.508Z,86.79
2023-03-24T02:14:38.650Z,86.57
2023-03-24T02:17:30.424Z,86.16
2023-03-24T02:20:23.129Z,85.78
2023-03-24T02:23:10.261Z,85.43
2023-03-24T02:25:57.774Z,85.03
2023-03-24T02:28:36.684Z,84.79
2023-03-24T02:31:24.406Z,84.81
2023-03-24T02:34:18.109Z,85.05
2023-03-24T02:37:00.302Z,85.15
2023-03-24T02:39:39.651Z,85.51
2023-03-24T02:42:13.012Z,85.96
2023-03-24T02:44:45.458Z,86.47
2023-03-24T02:47:19.217Z,86.74
2023-03-24T02:49:52.711Z,86.99
2023-03-24T02:52:24.382Z,87.43
2023-03-24T02:54:58.888Z,87.68
2023-03-24T02:57:32.981Z,87.93
2023-03-24T03:00:09.202Z,88.30
2023-03-24T03:02:41.239Z,88.58
2023-03-24T03:05:14.309Z,88.87
2023-03-24T03:07:46.939Z,89.21
2023-03-24T03:10:19.287Z,89.56
2023-03-24T03:12:49.394Z,89.83
2023-03-24T03:15:22.549Z,90.10
2023-03-24T03:17:54.104Z,90.39
2023-03-24T03:20:24.471Z,90.64
2023-03-24T03:22:56.792Z,90.87
2023-03-24T03:25:29.484Z,91.09
2023-03-24T03:27:59.141Z,91.31
2023-03-24T03:30:30.336Z,91.44
2023-03-24T03:33:03.730Z,91.63
2023-03-24T03:35:36.591Z,91.83
2023-03-24T03:38:11.969Z,91.97
2023-03-24T03:40:44.104Z,92.09
2023-03-24T03:43:12.814Z,92.19
2023-03-24T03:45:40.965Z,92.32
2023-03-24T03:48:09.397Z,92.42
2023-03-24T03:50:40.083Z,92.50
2023-03-24T03:53:08.827Z,92.59
2023-03-24T03:55:38.299Z,92.65
2023-03-24T03:58:08.234Z,92.73
2023-03-24T04:00:36.867Z,92.76
2023-03-24T04:03:26.184Z,92.74
2023-03-24T04:05:57.966Z,92.77
2023-03-24T04:08:35.523Z,92.81
2023-03-24T04:11:19.229Z,92.82
2023-03-24T04:13:56.018Z,92.77
2023-03-24T04:16:30.740Z,92.76
2023-03-24T04:19:09.297Z,92.79
2023-03-24T04:21:51.824Z,92.75
2023-03-24T04:24:27.123Z,92.79
2023-03-24T04:27:01.135Z,92.82
2023-03-24T04:29:37.156Z,92.77
2023-03-24T04:32:11.325Z,92.65
2023-03-24T04:34:45.157Z,92.65
2023-03-24T04:37:15.610Z,92.55
2023-03-24T04:39:46.938Z,92.50
2023-03-24T04:42:20.030Z,92.50
2023-03-24T04:44:51.591Z,92.47
2023-03-24T04:47:25.765Z,92.45
2023-03-24T04:50:02.530Z,92.37
2023-03-24T04:52:31.405Z,92.34
2023-03-24T04:54:59.736Z,92.37
2023-03-24T04:57:28.347Z,92.33
2023-03-24T04:59:57.857Z,92.32
2023-03-24T05:02:27.321Z,92.28
2023-03-24T05:04:55.480Z,92.21
2023-03-24T05:07:23.465Z,92.16
2023-03-24T05:09:52.303Z,92.08
2023-03-24T05:12:20.834Z,92.06
2023-03-24T05:14:48.854Z,92.05
2023-03-24T05:17:18.464Z,92.02
2023-03-24T05:19:47.035Z,92.01
2023-03-24T05:22:15.015Z,91.99
2023-03-24T05:24:43.081Z,91.98
2023-03-24T05:27:11.147Z,91.91
2023-03-24T05:29:39.535Z,91.80
2023-03-24T05:32:07.906Z,91.77
2023-03-24T05:34:37.906Z,91.67
2023-03-24T05:37:12.005Z,91.61
2023-03-24T05:39:40.388Z,91.49
2023-03-24T05:42:08.650Z,91.43
2023-03-24T05:44:36.782Z,91.26
2023-03-24T05:47:05.454Z,91.02
2023-03-24T05:49:33.764Z,90.77
2023-03-24T05:52:03.868Z,90.49
2023-03-24T05:54:34.160Z,90.20
2023-03-24T05:57:03.203Z,89.96
2023-03-24T05:59:31.835Z,89.62
2023-03-24T06:01:59.862Z,90.56
2023-03-24T06:04:30.069Z,90.11
2023-03-24T06:06:58.975Z,90.01
2023-03-24T06:09:29.647Z,89.52
2023-03-24T06:11:57.976Z,89.72
2023-03-24T06:14:26.727Z,89.37
2023-03-24T06:16:55.121Z,88.37
2023-03-24T06:19:24.913Z,88.46
2023-03-24T06:21:56.342Z,88.34
2023-03-24T06:24:24.844Z,88.00
2023-03-24T06:27:02.396Z,88.15
2023-03-24T06:29:30.802Z,88.22
2023-03-24T06:31:59.200Z,88.09
2023-03-24T06:34:29.268Z,88.31
2023-03-24T06:36:58.320Z,88.05
2023-03-24T06:39:27.008Z,88.10
2023-03-24T06:41:56.605Z,88.20
2023-03-24T06:44:24.800Z,87.71
2023-03-24T06:46:53.273Z,87.69
2023-03-24T06:49:21.931Z,88.05
2023-03-24T06:51:50.032Z,87.77
2023-03-24T06:54:18.618Z,87.58
2023-03-24T06:56:48.347Z,87.09
2023-03-24T06:59:18.234Z,86.68
2023-03-24T07:01:48.182Z,87.01
2023-03-24T07:04:16.151Z,87.60
2023-03-24T07:07:05.114Z,88.06
2023-03-24T07:09:36.432Z,88.34
2023-03-24T07:12:06.112Z,88.61
2023-03-24T07:14:36.030Z,88.69
2023-03-24T07:17:04.102Z,88.44
2023-03-24T07:19:33.845Z,88.29
2023-03-24T07:22:04.295Z,88.05
2023-03-24T07:24:32.314Z,88.06
2023-03-24T07:27:00.521Z,88.04
2023-03-24T07:29:30.902Z,87.94
2023-03-24T07:32:01.406Z,87.80
2023-03-24T07:34:29.913Z,87.78
2023-03-24T07:36:59.138Z,87.92
2023-03-24T07:39:29.053Z,88.09
2023-03-24T07:41:57.639Z,88.54
2023-03-24T07:44:26.834Z,88.86
2023-03-24T07:46:55.405Z,88.89
2023-03-24T07:49:25.106Z,89.19
2023-03-24T07:51:54.803Z,89.05
2023-03-24T07:54:22.806Z,89.19
2023-03-24T07:56:50.962Z,89.32
2023-03-24T07:59:20.798Z,89.47
2023-03-24T08:01:52.650Z,89.84
2023-03-24T08:04:28.832Z,89.88
2023-03-24T08:06:59.021Z,89.87
2023-03-24T08:09:27.108Z,89.73
2023-03-24T08:12:00.354Z,89.77
2023-03-24T08:14:32.624Z,89.85
2023-03-24T08:17:00.677Z,89.78
2023-03-24T08:19:30.858Z,89.71
2023-03-24T08:21:58.860Z,89.70
2023-03-24T08:24:27.184Z,89.73
2023-03-24T08:27:02.744Z,89.50
2023-03-24T08:29:30.786Z,89.43
2023-03-24T08:31:58.976Z,89.35
2023-03-24T08:34:27.303Z,89.34
2023-03-24T08:36:58.049Z,89.38
2023-03-24T08:39:26.092Z,89.24
2023-03-24T08:41:55.059Z,89.10
2023-03-24T08:44:27.443Z,88.72
2023-03-24T08:46:55.347Z,88.37
2023-03-24T08:49:23.739Z,87.71
2023-03-24T08:51:52.058Z,87.05
2023-03-24T08:54:24.900Z,86.56
2023-03-24T08:56:54.341Z,86.28
2023-03-24T08:59:22.562Z,85.98
2023-03-24T09:01:50.822Z,85.59
2023-03-24T09:04:19.697Z,85.25
2023-03-24T09:06:49.779Z,85.15
2023-03-24T09:09:19.949Z,84.86
2023-03-24T09:11:52.220Z,84.75
2023-03-24T09:14:22.329Z,84.40
2023-03-24T09:16:52.399Z,84.00
2023-03-24T09:19:20.474Z,83.77
2023-03-24T09:21:49.828Z,83.13
2023-03-24T09:24:18.065Z,82.61
2023-03-24T09:26:46.625Z,82.08
2023-03-24T09:29:16.043Z,81.75
2023-03-24T09:31:44.036Z,80.90
2023-03-24T09:34:12.079Z,80.49
2023-03-24T09:36:40.320Z,80.01
2023-03-24T09:39:10.163Z,79.44
2023-03-24T09:41:38.290Z,79.08
2023-03-24T09:44:11.860Z,79.15
2023-03-24T09:46:47.027Z,78.92
2023-03-24T09:49:20.557Z,77.72
2023-03-24T09:51:50.166Z,76.70
2023-03-24T09:54:20.637Z,76.88
2023-03-24T09:56:51.554Z,78.10
2023-03-24T09:59:23.449Z,78.75
2023-03-24T10:01:53.075Z,79.21
2023-03-24T10:04:23.777Z,79.94
2023-03-24T10:06:56.093Z,80.90
2023-03-24T10:09:27.289Z,80.88
2023-03-24T10:12:10.766Z,80.96
2023-03-24T10:14:52.017Z,80.78
2023-03-24T10:17:26.916Z,80.90
2023-03-24T10:20:00.460Z,79.42
2023-03-24T10:22:32.264Z,78.20
2023-03-24T10:25:09.495Z,77.70
2023-03-24T10:27:41.697Z,76.56
2023-03-24T10:30:15.927Z,75.55
2023-03-24T10:32:46.121Z,75.37
2023-03-24T10:35:19.894Z,75.33
2023-03-24T10:37:49.102Z,74.78
2023-03-24T10:40:19.334Z,74.67
2023-03-24T10:42:50.000Z,74.74
2023-03-24T10:45:37.945Z,74.67
2023-03-24T10:48:09.551Z,74.87
2023-03-24T10:50:45.463Z,74.86
2023-03-24T10:53:19.394Z,74.44
2023-03-24T10:55:50.934Z,73.82
2023-03-24T10:58:27.454Z,73.64
2023-03-24T11:00:58.143Z,73.20
2023-03-24T11:03:30.230Z,73.15
2023-03-24T11:06:04.552Z,73.36
2023-03-24T11:08:37.028Z,73.10
2023-03-24T11:11:15.445Z,71.98
2023-03-24T11:13:55.375Z,70.91
2023-03-24T11:16:28.783Z,68.42
2023-03-24T11:19:01.095Z,66.18
2023-03-24T11:21:30.356Z,64.88
2023-03-24T11:24:02.094Z,65.60
2023-03-24T11:26:33.236Z,67.34
2023-03-24T11:29:04.920Z,64.31
2023-03-24T11:31:38.499Z,63.44
2023-03-24T11:34:12.480Z,64.36
2023-03-24T11:36:45.417Z,67.68
2023-03-24T11:39:18.965Z,66.72
2023-03-24T11:41:54.264Z,64.59
2023-03-24T11:44:24.049Z,63.76
2023-03-24T11:46:54.827Z,64.78
2023-03-24T11:49:28.111Z,65.79
2023-03-24T11:51:57.045Z,64.87
2023-03-24T11:54:29.991Z,65.45
2023-03-24T11:57:01.776Z,65.41
2023-03-24T11:59:35.849Z,64.66
2023-03-24T12:02:14.606Z,65.26
2023-03-24T12:04:52.273Z,64.65
2023-03-24T12:07:40.638Z,64.03
2023-03-24T12:10:18.695Z,63.41
2023-03-24T12:12:53.144Z,65.04
2023-03-24T12:15:28.992Z,64.05
2023-03-24T12:18:14.170Z,64.44
2023-03-24T12:20:45.805Z,66.39
2023-03-24T12:23:18.499Z,65.38
2023-03-24T12:26:08.335Z,63.97
2023-03-24T12:28:51.652Z,64.75
2023-03-24T12:31:34.769Z,64.44
2023-03-24T12:34:14.389Z,64.56
2023-03-24T12:36:48.796Z,65.06
2023-03-24T12:39:22.017Z,65.08
2023-03-24T12:41:58.614Z,65.00
2023-03-24T12:45:06.479Z,64.45
2023-03-24T12:48:06.971Z,64.41
2023-03-24T12:50:44.437Z,65.24
2023-03-24T12:53:24.503Z,64.67
2023-03-24T12:55:55.752Z,65.09
2023-03-24T12:58:28.284Z,64.63
2023-03-24T13:01:01.543Z,63.61
2023-03-24T13:03:33.102Z,65.19
2023-03-24T13:06:17.936Z,64.86
2023-03-24T13:08:57.041Z,64.27
2023-03-24T13:11:33.237Z,64.45
2023-03-24T13:14:04.709Z,64.61
2023-03-24T13:16:36.902Z,63.42
2023-03-24T13:19:05.376Z,63.16
2023-03-24T13:21:35.409Z,63.76
2023-03-24T13:24:09.588Z,63.35
2023-03-24T13:26:40.769Z,62.63
2023-03-24T13:29:18.668Z,62.64
2023-03-24T13:31:52.206Z,63.16
2023-03-24T13:34:27.307Z,65.14
2023-03-24T13:37:00.295Z,63.78
2023-03-24T13:39:30.703Z,61.47
2023-03-24T13:41:59.783Z,61.15
2023-03-24T13:44:31.542Z,60.38
2023-03-24T13:47:16.231Z,60.15
2023-03-24T13:49:46.780Z,60.07
2023-03-24T13:52:26.962Z,61.79
2023-03-24T13:54:58.749Z,61.81
2023-03-24T13:57:27.842Z,59.37
2023-03-24T14:00:08.637Z,62.28
2023-03-24T14:02:49.808Z,60.31
2023-03-24T14:05:32.892Z,58.82
2023-03-24T14:08:17.900Z,57.72
2023-03-24T14:10:49.452Z,57.65
2023-03-24T14:13:42.739Z,60.00
2023-03-24T14:16:45.250Z,58.45
2023-03-24T14:19:22.773Z,57.34
2023-03-24T14:22:00.341Z,58.55
2023-03-24T14:24:31.615Z,57.22
2023-03-24T14:27:09.481Z,57.84
2023-03-24T14:29:41.242Z,59.54
2023-03-24T14:32:20.177Z,57.83
2023-03-24T14:34:55.010Z,57.18
2023-03-24T14:37:23.063Z,58.29
2023-03-24T14:39:51.973Z,57.26
2023-03-24T14:42:56.274Z,57.78
2023-03-24T14:45:53.663Z,57.95
2023-03-24T14:48:28.433Z,58.87
2023-03-24T14:51:01.970Z,57.01
2023-03-24T14:53:30.788Z,57.40
2023-03-24T14:55:59.325Z,56.46
2023-03-24T14:58:36.344Z,56.28
2023-03-24T15:01:08.117Z,56.51
2023-03-24T15:03:42.838Z,58.16
2023-03-24T15:06:14.624Z,56.90
2023-03-24T15:08:46.966Z,56.90
2023-03-24T15:11:14.912Z,56.47
2023-03-24T15:13:45.445Z,56.26
2023-03-24T15:16:24.982Z,57.03
2023-03-24T15:21:28.749Z,58.94
2023-03-24T15:23:57.580Z,62.54
2023-03-24T15:26:27.224Z,61.23
2023-03-24T15:28:58.353Z,59.77
2023-03-24T15:31:30.368Z,60.25
2023-03-24T15:34:23.895Z,63.04
2023-03-24T15:36:55.116Z,58.88
2023-03-24T15:39:27.461Z,59.26
2023-03-24T15:41:56.954Z,60.88
2023-03-24T15:44:29.173Z,59.10
2023-03-24T15:46:59.266Z,59.34
2023-03-24T15:49:29.406Z,61.51
2023-03-24T15:51:59.913Z,59.10
2023-03-24T15:54:30.631Z,59.01
2023-03-24T15:57:21.062Z,59.83
2023-03-24T15:59:52.650Z,59.30
2023-03-24T16:02:29.395Z,59.39
2023-03-24T16:05:10.810Z,59.41
2023-03-24T16:07:40.793Z,58.29
2023-03-24T16:10:27.643Z,58.41
2023-03-24T16:12:56.157Z,59.17
2023-03-24T16:15:25.745Z,59.30
2023-03-24T16:17:54.120Z,60.00
2023-03-24T16:20:23.677Z,60.28
2023-03-24T16:22:52.283Z,61.03
2023-03-24T16:25:20.874Z,60.46
2023-03-24T16:27:50.383Z,60.74
2023-03-24T16:30:21.207Z,60.40
2023-03-24T16:32:51.081Z,60.94
2023-03-24T16:35:19.251Z,60.90
2023-03-24T16:37:48.275Z,61.02
2023-03-24T16:40:23.356Z,60.97
2023-03-24T16:42:52.897Z,61.30
2023-03-24T16:45:21.380Z,61.56
2023-03-24T16:47:50.851Z,61.39
2023-03-24T16:50:26.058Z,61.62
2023-03-24T16:52:54.416Z,61.85
2023-03-24T16:55:22.794Z,62.48
2023-03-24T16:57:52.039Z,62.56
2023-03-24T17:00:22.471Z,62.57
2023-03-24T17:02:53.922Z,62.89
2023-03-24T17:05:24.736Z,62.89
2023-03-24T17:07:52.905Z,63.09
2023-03-24T17:10:23.633Z,64.10
2023-03-24T17:12:52.721Z,64.05
2023-03-24T17:15:23.667Z,64.19
2023-03-24T17:17:53.410Z,64.33
2023-03-24T17:20:23.337Z,64.69
2023-03-24T17:22:53.408Z,64.91
2023-03-24T17:25:24.665Z,65.21
2023-03-24T17:27:52.765Z,65.38
2023-03-24T17:30:22.568Z,65.61
2023-03-24T17:32:51.316Z,65.84
2023-03-24T17:35:23.445Z,66.15
2023-03-24T17:37:52.765Z,66.31
2023-03-24T17:40:21.825Z,66.43
2023-03-24T17:42:51.029Z,66.65
2023-03-24T17:45:20.774Z,66.96
2023-03-24T17:47:49.064Z,67.07
2023-03-24T17:50:20.718Z,67.65
2023-03-24T17:52:51.346Z,67.47
2023-03-24T17:55:19.875Z,67.49
2023-03-24T17:57:48.133Z,67.56
2023-03-24T18:00:17.476Z,67.41
2023-03-24T18:02:46.069Z,67.18
2023-03-24T18:05:16.128Z,67.35
2023-03-24T18:07:46.949Z,68.55
2023-03-24T18:10:16.755Z,68.36
2023-03-24T18:12:45.601Z,68.14
2023-03-24T18:15:15.027Z,68.25
2023-03-24T18:17:43.189Z,67.94
2023-03-24T18:20:14.738Z,69.06
2023-03-24T18:22:43.335Z,69.29
2023-03-24T18:25:14.517Z,70.27
2023-03-24T18:27:44.029Z,69.20
2023-03-24T18:30:14.217Z,68.64
2023-03-24T18:32:43.073Z,68.22
2023-03-24T18:35:16.254Z,68.59
2023-03-24T18:37:45.118Z,68.03
2023-03-24T18:40:15.809Z,67.93
2023-03-24T18:42:45.288Z,68.09
2023-03-24T18:45:17.499Z,68.44
2023-03-24T18:47:46.610Z,68.25
2023-03-24T18:50:16.020Z,69.08
2023-03-24T18:52:44.085Z,69.40
2023-03-24T18:55:12.711Z,69.53
2023-03-24T18:57:41.133Z,69.84
2023-03-24T19:00:13.107Z,69.86
2023-03-24T19:02:41.637Z,69.63
2023-03-24T19:05:10.796Z,70.09
2023-03-24T19:07:38.797Z,70.12
2023-03-24T19:10:07.853Z,70.84
2023-03-24T19:12:36.017Z,71.14
2023-03-24T19:15:06.283Z,71.57
2023-03-24T19:17:37.081Z,71.75
2023-03-24T19:20:08.817Z,72.00
2023-03-24T19:22:42.177Z,72.39
2023-03-24T19:25:10.810Z,73.23
2023-03-24T19:27:38.827Z,74.03
2023-03-24T19:30:08.567Z,74.21
2023-03-24T19:32:38.387Z,73.83
2023-03-24T19:35:10.344Z,73.87
2023-03-24T19:37:38.474Z,74.07
2023-03-24T19:40:10.922Z,74.29
2023-03-24T19:42:41.734Z,74.92
2023-03-24T19:45:11.268Z,76.02
2023-03-24T19:47:40.854Z,76.08
2023-03-24T19:50:09.743Z,76.08
2023-03-24T19:52:39.477Z,76.50
2023-03-24T19:55:09.185Z,76.27
2023-03-24T19:57:37.742Z,76.24
2023-03-24T20:00:09.524Z,76.60
2023-03-24T20:02:41.561Z,76.40
2023-03-24T20:05:12.041Z,76.76
2023-03-24T20:07:40.523Z,76.94
2023-03-24T20:10:10.265Z,77.45
2023-03-24T20:12:38.642Z,77.46
2023-03-24T20:15:07.767Z,77.85
2023-03-24T20:17:37.603Z,78.08
2023-03-24T20:20:08.314Z,79.07
2023-03-24T20:22:41.397Z,78.68
2023-03-24T20:25:10.794Z,78.70
2023-03-24T20:27:39.226Z,78.75
2023-03-24T20:30:09.576Z,78.96
2023-03-24T20:32:38.037Z,79.08
2023-03-24T20:35:06.914Z,79.32
2023-03-24T20:37:35.827Z,79.54
2023-03-24T20:40:08.225Z,79.76
2023-03-24T20:42:36.407Z,79.96
2023-03-24T20:45:06.307Z,80.03
2023-03-24T20:47:34.539Z,80.26
2023-03-24T20:50:02.872Z,80.39
2023-03-24T20:52:32.643Z,80.47
2023-03-24T20:55:05.525Z,80.46
2023-03-24T20:57:36.128Z,80.51
2023-03-24T21:00:10.069Z,80.59
2023-03-24T21:02:38.483Z,80.67
2023-03-24T21:05:07.479Z,80.72
2023-03-24T21:07:37.015Z,80.83
2023-03-24T21:10:06.713Z,80.76
2023-03-24T21:12:36.951Z,80.56
2023-03-24T21:15:22.930Z,80.44
2023-03-24T21:17:51.312Z,80.61
2023-03-24T21:20:21.179Z,80.12
2023-03-24T21:22:55.227Z,79.92
2023-03-24T21:25:24.596Z,79.82
2023-03-24T21:27:54.263Z,79.58
2023-03-24T21:30:23.905Z,79.35
2023-03-24T21:32:54.215Z,78.98
2023-03-24T21:35:24.983Z,79.44
2023-03-24T21:37:54.025Z,79.31
2023-03-24T21:40:24.218Z,79.03
2023-03-24T21:42:54.297Z,78.99
2023-03-24T21:45:24.163Z,79.08
2023-03-24T21:47:55.346Z,78.97
2023-03-24T21:50:24.094Z,79.15
2023-03-24T21:52:53.672Z,79.37
2023-03-24T21:55:24.964Z,79.17
2023-03-24T21:57:54.508Z,79.47
2023-03-24T22:00:26.411Z,79.71
2023-03-24T22:02:58.215Z,79.71
2023-03-24T22:05:27.779Z,79.87
2023-03-24T22:07:58.009Z,79.85
2023-03-24T22:10:30.221Z,80.13
2023-03-24T22:13:00.170Z,80.36
2023-03-24T22:15:29.443Z,80.64
2023-03-24T22:18:00.421Z,80.72
2023-03-24T22:20:28.811Z,80.72
2023-03-24T22:22:57.169Z,80.80
2023-03-24T22:25:26.509Z,81.34
2023-03-24T22:27:56.091Z,81.57
2023-03-24T22:30:25.778Z,81.50
2023-03-24T22:32:53.918Z,81.86
2023-03-24T22:35:25.156Z,81.79
2023-03-24T22:37:53.203Z,81.88
2023-03-24T22:40:21.246Z,81.77
2023-03-24T22:42:49.776Z,81.69
2023-03-24T22:45:18.199Z,81.69
2023-03-24T22:47:49.395Z,81.74
2023-03-24T22:50:18.337Z,81.99
2023-03-24T22:52:46.492Z,81.97
2023-03-24T22:55:14.590Z,82.09
2023-03-24T22:57:44.180Z,82.29
2023-03-24T23:00:13.671Z,82.76
2023-03-24T23:02:41.996Z,82.49
2023-03-24T23:05:11.662Z,82.71
2023-03-24T23:07:39.972Z,82.84
2023-03-24T23:10:10.020Z,82.84
2023-03-24T23:12:38.415Z,82.84
2023-03-24T23:15:08.824Z,83.11
2023-03-24T23:17:37.178Z,83.18
2023-03-24T23:20:10.196Z,83.32
2023-03-24T23:22:39.981Z,83.32
2023-03-24T23:25:10.355Z,83.55
2023-03-24T23:27:39.684Z,83.61
2023-03-24T23:30:10.905Z,83.80
2023-03-24T23:32:41.082Z,84.23
2023-03-24T23:35:10.678Z,84.38
2023-03-24T23:37:40.474Z,84.43
2023-03-24T23:40:15.132Z,84.77
2023-03-24T23:42:44.860Z,84.81
2023-03-24T23:45:15.268Z,84.79
2023-03-24T23:47:44.363Z,85.02
2023-03-24T23:50:13.249Z,85.25
2023-03-24T23:52:43.962Z,85.24
2023-03-24T23:55:12.978Z,85.14
2023-03-24T23:57:42.437Z,85.19
